createdAt,value
2018-03-02T00:01:01.273Z,-9.59
2018-03-02T00:03:29.722Z,-9.62
2018-03-02T00:05:58.154Z,-9.62
2018-03-02T00:08:27.293Z,-9.62
2018-03-02T00:10:55.786Z,-9.67
2018-03-02T00:13:24.192Z,-9.66
2018-03-02T00:15:53.457Z,-9.70
2018-03-02T00:18:21.854Z,-9.73
2018-03-02T00:20:50.246Z,-9.71
2018-03-02T00:23:18.624Z,-9.77
2018-03-02T00:25:47.024Z,-9.81
2018-03-02T00:28:16.248Z,-9.80
2018-03-02T00:30:44.669Z,-9.85
2018-03-02T00:33:13.069Z,-10.07
2018-03-02T00:35:42.238Z,-9.86
2018-03-02T00:38:10.642Z,-9.84
2018-03-02T00:40:39.042Z,-9.93
2018-03-02T00:43:08.222Z,-9.96
2018-03-02T00:45:36.589Z,-9.97
2018-03-02T00:48:05.021Z,-10.03
2018-03-02T00:50:33.417Z,-9.99
2018-03-02T00:53:01.895Z,-10.03
2018-03-02T00:55:30.284Z,-10.04
2018-03-02T00:57:58.663Z,-10.10
2018-03-02T01:00:27.056Z,-10.14
2018-03-02T01:02:55.479Z,-10.11
2018-03-02T01:05:23.895Z,-10.14
2018-03-02T01:07:52.289Z,-10.17
2018-03-02T01:10:20.685Z,-10.18
2018-03-02T01:12:49.149Z,-10.23
2018-03-02T01:15:17.537Z,-10.22
2018-03-02T01:17:46.754Z,-10.24
2018-03-02T01:20:15.139Z,-10.27
2018-03-02T01:22:44.373Z,-10.30
2018-03-02T01:25:12.792Z,-10.36
2018-03-02T01:27:41.982Z,-10.36
2018-03-02T01:30:10.395Z,-10.34
2018-03-02T01:32:39.552Z,-10.39
2018-03-02T01:35:07.964Z,-10.41
2018-03-02T01:37:37.116Z,-10.43
2018-03-02T01:40:05.549Z,-10.40
2018-03-02T01:42:34.704Z,-10.40
2018-03-02T01:45:03.156Z,-10.45
2018-03-02T01:47:31.570Z,-10.50
2018-03-02T01:49:59.982Z,-10.49
2018-03-02T01:52:29.184Z,-10.53
2018-03-02T01:54:57.586Z,-10.54
2018-03-02T01:57:26.053Z,-10.52
2018-03-02T01:59:54.463Z,-10.58
2018-03-02T02:02:22.938Z,-10.63
2018-03-02T02:04:51.345Z,-10.66
2018-03-02T02:07:19.748Z,-10.65
2018-03-02T02:09:48.894Z,-10.65
2018-03-02T02:12:17.303Z,-10.65
2018-03-02T02:14:45.682Z,-10.67
2018-03-02T02:17:14.096Z,-10.70
2018-03-02T02:19:43.294Z,-10.76
2018-03-02T02:22:12.517Z,-10.75
2018-03-02T02:24:40.999Z,-10.78
2018-03-02T02:27:09.425Z,-10.79
2018-03-02T02:29:37.813Z,-10.80
2018-03-02T02:32:06.192Z,-10.82
2018-03-02T02:34:35.378Z,-10.78
2018-03-02T02:37:03.773Z,-10.85
2018-03-02T02:39:32.941Z,-10.87
2018-03-02T02:42:01.325Z,-10.89
2018-03-02T02:44:29.722Z,-10.91
2018-03-02T02:46:58.158Z,-10.92
2018-03-02T02:49:26.736Z,-10.91
2018-03-02T02:51:55.227Z,-10.91
2018-03-02T02:54:23.665Z,-10.94
2018-03-02T02:56:52.077Z,-10.96
2018-03-02T02:59:20.455Z,-10.99
2018-03-02T03:01:48.842Z,-11.02
2018-03-02T03:04:17.368Z,-11.04
2018-03-02T03:06:46.516Z,-11.04
2018-03-02T03:09:14.996Z,-11.05
2018-03-02T03:11:43.417Z,-11.07
2018-03-02T03:14:11.798Z,-11.07
2018-03-02T03:16:40.947Z,-11.08
2018-03-02T03:19:09.399Z,-11.09
2018-03-02T03:21:37.793Z,-11.08
2018-03-02T03:24:06.208Z,-11.13
2018-03-02T03:26:35.371Z,-11.09
2018-03-02T03:29:03.778Z,-11.10
2018-03-02T03:31:32.212Z,-11.09
2018-03-02T03:34:00.617Z,-11.16
2018-03-02T03:36:29.004Z,-11.13
2018-03-02T03:38:57.480Z,-11.19
2018-03-02T03:41:25.949Z,-11.21
2018-03-02T03:43:54.338Z,-11.21
2018-03-02T03:46:22.793Z,-11.19
2018-03-02T03:48:51.201Z,-11.27
2018-03-02T03:51:19.640Z,-11.26
2018-03-02T03:53:48.784Z,-11.30
2018-03-02T03:56:17.226Z,-11.29
2018-03-02T03:58:45.606Z,-11.26
2018-03-02T04:01:14.014Z,-11.30
2018-03-02T04:03:42.426Z,-11.34
2018-03-02T04:06:10.803Z,-11.32
2018-03-02T04:08:39.194Z,-11.35
2018-03-02T04:11:07.691Z,-11.35
2018-03-02T04:13:36.873Z,-11.37
2018-03-02T04:16:06.026Z,-11.43
2018-03-02T04:18:34.405Z,-11.40
2018-03-02T04:21:02.826Z,-11.40
2018-03-02T04:23:31.998Z,-11.46
2018-03-02T04:26:00.406Z,-11.45
2018-03-02T04:28:29.653Z,-11.50
2018-03-02T04:30:58.121Z,-11.44
2018-03-02T04:33:26.493Z,-11.52
2018-03-02T04:35:54.889Z,-11.51
2018-03-02T04:38:23.282Z,-11.55
2018-03-02T04:40:51.685Z,-11.57
2018-03-02T04:43:20.118Z,-11.57
2018-03-02T04:45:48.531Z,-11.58
2018-03-02T04:48:16.981Z,-11.61
2018-03-02T04:50:45.361Z,-11.62
2018-03-02T04:53:13.778Z,-11.59
2018-03-02T04:55:42.173Z,-11.63
2018-03-02T04:58:11.377Z,-11.61
2018-03-02T05:00:40.529Z,-11.62
2018-03-02T05:03:08.958Z,-11.61
2018-03-02T05:05:38.125Z,-11.67
2018-03-02T05:08:06.547Z,-11.70
2018-03-02T05:10:34.926Z,-11.66
2018-03-02T05:13:03.317Z,-11.70
2018-03-02T05:15:31.729Z,-11.69
2018-03-02T05:18:00.150Z,-11.73
2018-03-02T05:20:29.318Z,-11.74
2018-03-02T05:22:57.709Z,-11.72
2018-03-02T05:25:26.155Z,-11.75
2018-03-02T05:27:54.628Z,-11.80
2018-03-02T05:30:23.045Z,-11.80
2018-03-02T05:32:51.450Z,-11.81
2018-03-02T05:35:20.602Z,-11.82
2018-03-02T05:37:49.093Z,-11.80
2018-03-02T05:40:17.509Z,-11.75
2018-03-02T05:42:46.654Z,-11.80
2018-03-02T05:45:15.055Z,-11.85
2018-03-02T05:47:43.462Z,-11.85
2018-03-02T05:50:12.661Z,-11.68
2018-03-02T05:52:41.829Z,-11.61
2018-03-02T05:55:10.207Z,-11.65
2018-03-02T05:57:38.614Z,-11.69
2018-03-02T06:00:07.821Z,-10.60
2018-03-02T06:02:36.222Z,-10.53
2018-03-02T06:05:04.623Z,-10.56
2018-03-02T06:07:33.041Z,-10.96
2018-03-02T06:10:02.223Z,-10.49
2018-03-02T06:12:31.368Z,-11.25
2018-03-02T06:14:59.746Z,-11.58
2018-03-02T06:17:28.237Z,-11.70
2018-03-02T06:19:56.610Z,-11.74
2018-03-02T06:22:24.987Z,-11.75
2018-03-02T06:24:53.390Z,-11.69
2018-03-02T06:27:21.834Z,-11.77
2018-03-02T06:29:50.250Z,-11.71
2018-03-02T06:32:18.629Z,-11.64
2018-03-02T06:34:47.013Z,-11.64
2018-03-02T06:37:15.445Z,-11.62
2018-03-02T06:39:43.834Z,-11.54
2018-03-02T06:42:12.215Z,-11.56
2018-03-02T06:44:40.630Z,-11.51
2018-03-02T06:47:09.024Z,-11.49
2018-03-02T06:49:37.397Z,-11.42
2018-03-02T06:52:05.802Z,-11.33
2018-03-02T06:54:34.951Z,-11.37
2018-03-02T06:57:03.349Z,-11.35
2018-03-02T06:59:31.758Z,-11.24
2018-03-02T07:02:00.906Z,-11.26
2018-03-02T07:04:29.306Z,-11.14
2018-03-02T07:06:57.738Z,-11.14
2018-03-02T07:09:26.160Z,-11.12
2018-03-02T07:11:54.545Z,-11.11
2018-03-02T07:14:22.997Z,-11.03
2018-03-02T07:16:51.409Z,-10.86
2018-03-02T07:19:19.827Z,-10.84
2018-03-02T07:21:48.237Z,-10.71
2018-03-02T07:24:16.620Z,-10.56
2018-03-02T07:26:45.010Z,-10.47
2018-03-02T07:29:13.386Z,-10.43
2018-03-02T07:31:41.814Z,-10.35
2018-03-02T07:34:10.206Z,-10.23
2018-03-02T07:36:38.589Z,-10.15
2018-03-02T07:39:06.990Z,-10.27
2018-03-02T07:41:35.401Z,-10.33
2018-03-02T07:44:04.645Z,-9.08
2018-03-02T07:46:33.039Z,-9.69
2018-03-02T07:49:01.438Z,-9.76
2018-03-02T07:51:29.815Z,-9.74
2018-03-02T07:53:58.185Z,-9.57
2018-03-02T07:56:26.570Z,-9.61
2018-03-02T07:58:54.970Z,-9.59
2018-03-02T08:01:23.366Z,-9.62
2018-03-02T08:03:52.494Z,-9.49
2018-03-02T08:06:20.960Z,-9.55
2018-03-02T08:08:49.365Z,-9.33
2018-03-02T08:11:17.740Z,-9.23
2018-03-02T08:13:46.121Z,-9.12
2018-03-02T08:16:14.645Z,-9.08
2018-03-02T08:18:43.062Z,-9.08
2018-03-02T08:21:11.429Z,-9.03
2018-03-02T08:23:39.813Z,-9.00
2018-03-02T08:26:08.252Z,-8.91
2018-03-02T08:28:36.608Z,-8.82
2018-03-02T08:31:04.990Z,-8.68
2018-03-02T08:33:33.400Z,-8.51
2018-03-02T08:36:02.549Z,-8.28
2018-03-02T08:38:30.925Z,-8.39
2018-03-02T08:40:59.325Z,-8.47
2018-03-02T08:43:27.709Z,-8.14
2018-03-02T08:45:56.083Z,-7.96
2018-03-02T08:48:24.481Z,-8.10
2018-03-02T08:50:53.623Z,-7.79
2018-03-02T08:53:22.097Z,-7.62
2018-03-02T08:55:50.469Z,-7.62
2018-03-02T08:58:18.841Z,-7.69
2018-03-02T09:00:47.253Z,-7.57
2018-03-02T09:03:15.672Z,-7.55
2018-03-02T09:05:44.066Z,-7.13
2018-03-02T09:08:13.205Z,-7.04
2018-03-02T09:13:39.785Z,-6.97
2018-03-02T09:16:08.224Z,-7.07
2018-03-02T09:18:36.597Z,-6.96
2018-03-02T09:21:04.970Z,-6.81
2018-03-02T09:23:33.384Z,-6.56
2018-03-02T09:26:01.837Z,-6.43
2018-03-02T09:28:30.210Z,-5.84
2018-03-02T09:30:58.597Z,-4.47
2018-03-02T09:33:26.970Z,-2.01
2018-03-02T09:35:55.363Z,-1.08
2018-03-02T09:38:23.782Z,-1.58
2018-03-02T09:40:52.205Z,-0.61
2018-03-02T09:43:20.623Z,0.60
2018-03-02T09:45:49.005Z,1.03
2018-03-02T09:48:17.420Z,2.15
2018-03-02T09:50:45.838Z,1.49
2018-03-02T09:53:14.203Z,1.73
2018-03-02T09:55:42.581Z,0.79
2018-03-02T09:58:10.945Z,0.95
2018-03-02T10:00:39.341Z,3.40
2018-03-02T10:03:07.713Z,0.85
2018-03-02T10:05:36.194Z,0.36
2018-03-02T10:08:04.594Z,2.34
2018-03-02T10:10:32.964Z,1.99
2018-03-02T10:13:01.350Z,1.92
2018-03-02T10:15:29.710Z,0.25
2018-03-02T10:17:58.162Z,-0.24
2018-03-02T10:20:27.407Z,0.22
2018-03-02T10:22:55.773Z,0.28
2018-03-02T10:25:24.245Z,-0.17
2018-03-02T10:27:52.612Z,-0.44
2018-03-02T10:30:21.041Z,-0.99
2018-03-02T10:32:49.429Z,0.06
2018-03-02T10:35:17.817Z,-0.13
2018-03-02T10:37:47.720Z,-0.94
2018-03-02T10:40:16.109Z,-0.92
2018-03-02T10:42:44.509Z,-0.47
2018-03-02T10:45:13.647Z,-1.74
2018-03-02T10:47:42.086Z,-1.69
2018-03-02T10:50:11.263Z,-2.19
2018-03-02T10:52:39.684Z,-2.63
2018-03-02T10:55:08.079Z,-2.65
2018-03-02T10:57:36.528Z,-2.97
2018-03-02T11:00:04.917Z,-3.22
2018-03-02T11:02:33.305Z,-3.55
2018-03-02T11:05:07.000Z,-3.28
2018-03-02T11:07:35.411Z,-3.17
2018-03-02T11:10:03.906Z,-2.89
2018-03-02T11:12:32.268Z,-3.13
2018-03-02T11:15:00.666Z,-2.86
2018-03-02T11:17:29.074Z,-2.13
2018-03-02T11:19:58.215Z,-0.99
2018-03-02T11:22:26.642Z,-0.36
2018-03-02T11:24:55.038Z,-0.70
2018-03-02T11:27:24.170Z,-0.36
2018-03-02T11:29:52.569Z,-0.17
2018-03-02T11:32:21.024Z,-0.48
2018-03-02T11:34:49.493Z,-1.57
2018-03-02T11:37:17.861Z,-2.43
2018-03-02T11:39:46.430Z,-2.39
2018-03-02T11:42:15.587Z,-2.37
2018-03-02T11:44:43.954Z,-2.18
2018-03-02T11:47:12.422Z,-2.14
2018-03-02T11:49:40.847Z,-1.96
2018-03-02T11:52:09.224Z,-1.87
2018-03-02T11:54:37.599Z,-1.86
2018-03-02T11:57:05.996Z,-1.23
2018-03-02T11:59:35.167Z,-0.95
2018-03-02T12:02:03.550Z,-0.51
2018-03-02T12:04:31.976Z,-1.48
2018-03-02T12:07:00.451Z,-1.69
2018-03-02T12:09:28.844Z,-1.68
2018-03-02T12:11:57.379Z,-1.80
2018-03-02T12:14:25.761Z,-2.41
2018-03-02T12:16:54.976Z,-2.09
2018-03-02T12:19:23.679Z,-1.55
2018-03-02T12:21:52.058Z,-1.45
2018-03-02T12:24:20.451Z,-1.24
2018-03-02T12:26:48.841Z,-1.29
2018-03-02T12:29:17.491Z,-1.53
2018-03-02T12:31:46.073Z,-1.83
2018-03-02T12:34:14.478Z,-1.89
2018-03-02T12:36:42.945Z,-1.84
2018-03-02T12:39:12.055Z,-1.86
2018-03-02T12:41:40.435Z,-1.56
2018-03-02T12:44:08.837Z,-1.62
2018-03-02T12:46:37.292Z,-1.34
2018-03-02T12:49:05.714Z,-1.19
2018-03-02T12:51:34.135Z,-0.97
2018-03-02T12:54:02.526Z,-1.01
2018-03-02T12:56:30.968Z,-0.77
2018-03-02T12:59:00.333Z,-0.78
2018-03-02T13:01:28.746Z,-0.50
2018-03-02T13:03:57.882Z,-1.15
2018-03-02T13:06:26.275Z,-0.84
2018-03-02T13:08:54.645Z,-0.86
2018-03-02T13:11:23.046Z,-0.70
2018-03-02T13:13:51.422Z,-0.60
2018-03-02T13:16:19.826Z,-0.61
2018-03-02T13:18:49.050Z,-0.35
2018-03-02T13:21:17.424Z,-0.34
2018-03-02T13:23:46.571Z,-1.01
2018-03-02T13:26:32.753Z,-0.42
2018-03-02T13:29:01.144Z,-0.27
2018-03-02T13:31:29.585Z,-0.31
2018-03-02T13:34:15.572Z,-0.23
2018-03-02T13:36:43.969Z,-0.06
2018-03-02T13:39:12.336Z,-0.47
2018-03-02T13:41:58.822Z,-0.56
2018-03-02T13:44:28.041Z,-0.49
2018-03-02T13:46:56.442Z,-0.49
2018-03-02T13:49:42.840Z,-0.09
2018-03-02T13:52:11.241Z,-0.55
2018-03-02T13:54:39.650Z,-0.25
2018-03-02T14:00:17.573Z,-0.48
2018-03-02T14:03:03.759Z,-0.70
2018-03-02T14:05:32.902Z,-0.78
2018-03-02T14:08:01.310Z,-0.71
2018-03-02T14:10:29.713Z,-0.86
2018-03-02T14:12:58.073Z,-0.92
2018-03-02T14:15:26.486Z,-0.86
2018-03-02T14:17:55.639Z,-0.78
2018-03-02T14:20:24.025Z,-0.95
2018-03-02T14:22:52.447Z,-1.22
2018-03-02T14:25:20.846Z,-1.09
2018-03-02T14:27:49.230Z,-1.10
2018-03-02T14:30:17.615Z,-1.30
2018-03-02T14:32:46.015Z,-1.18
2018-03-02T14:35:14.378Z,-1.11
2018-03-02T14:37:42.755Z,-1.27
2018-03-02T14:40:11.161Z,-1.39
2018-03-02T14:42:39.538Z,-1.15
2018-03-02T14:45:07.965Z,-0.90
2018-03-02T14:47:36.340Z,-0.85
2018-03-02T14:50:04.721Z,-1.49
2018-03-02T14:52:33.107Z,-1.78
2018-03-02T14:55:01.551Z,-1.50
2018-03-02T14:57:30.716Z,-1.23
2018-03-02T14:59:59.092Z,-1.51
2018-03-02T15:02:27.503Z,-1.48
2018-03-02T15:04:55.900Z,-1.64
2018-03-02T15:07:24.312Z,-1.79
2018-03-02T15:09:52.716Z,-1.82
2018-03-02T15:12:21.103Z,-2.02
2018-03-02T15:14:49.536Z,-1.84
2018-03-02T15:17:17.912Z,-1.90
2018-03-02T15:19:46.308Z,-1.96
2018-03-02T15:22:14.697Z,-1.99
2018-03-02T15:24:43.063Z,-2.14
2018-03-02T15:27:11.474Z,-2.19
2018-03-02T15:29:39.884Z,-2.16
2018-03-02T15:32:09.050Z,-2.24
2018-03-02T15:34:37.429Z,-2.19
2018-03-02T15:37:05.808Z,-2.16
2018-03-02T15:39:34.201Z,-2.24
2018-03-02T15:42:03.352Z,-2.37
2018-03-02T15:44:31.729Z,-2.42
2018-03-02T15:47:00.121Z,-2.52
2018-03-02T15:49:28.573Z,-2.55
2018-03-02T15:51:56.906Z,-2.48
2018-03-02T15:54:25.284Z,-2.51
2018-03-02T15:56:53.681Z,-2.65
2018-03-02T15:59:22.828Z,-2.80
2018-03-02T16:01:51.229Z,-2.83
2018-03-02T16:04:19.609Z,-2.89
2018-03-02T16:06:48.033Z,-2.83
2018-03-02T16:09:16.424Z,-2.85
2018-03-02T16:11:44.809Z,-2.95
2018-03-02T16:14:13.238Z,-3.05
2018-03-02T16:16:41.635Z,-3.08
2018-03-02T16:19:10.764Z,-3.11
2018-03-02T16:21:39.141Z,-3.13
2018-03-02T16:24:07.530Z,-3.21
2018-03-02T16:26:35.925Z,-3.28
2018-03-02T16:29:04.361Z,-3.38
2018-03-02T16:31:32.733Z,-3.45
2018-03-02T16:34:01.125Z,-3.52
2018-03-02T16:36:29.528Z,-3.59
2018-03-02T16:38:57.900Z,-3.61
2018-03-02T16:41:26.298Z,-3.71
2018-03-02T16:43:54.678Z,-3.77
2018-03-02T16:46:23.087Z,-3.82
2018-03-02T16:48:52.231Z,-3.84
2018-03-02T16:51:20.709Z,-3.91
2018-03-02T16:53:49.057Z,-3.92
2018-03-02T16:56:18.202Z,-3.98
2018-03-02T16:58:46.605Z,-4.04
2018-03-02T17:01:15.143Z,-4.01
2018-03-02T17:03:43.551Z,-4.09
2018-03-02T17:06:11.932Z,-4.09
2018-03-02T17:08:40.449Z,-4.11
2018-03-02T17:11:08.938Z,-4.14
2018-03-02T17:13:37.318Z,-4.19
2018-03-02T17:16:05.775Z,-4.22
2018-03-02T17:18:34.911Z,-4.29
2018-03-02T17:21:03.318Z,-4.32
2018-03-02T17:23:31.724Z,-4.34
2018-03-02T17:26:00.086Z,-4.39
2018-03-02T17:28:28.841Z,-4.42
2018-03-02T17:30:57.302Z,-4.48
2018-03-02T17:33:25.714Z,-4.48
2018-03-02T17:35:54.110Z,-4.51
2018-03-02T17:38:22.514Z,-4.56
2018-03-02T17:40:51.654Z,-4.56
2018-03-02T17:43:20.209Z,-4.64
2018-03-02T17:45:48.633Z,-4.66
2018-03-02T17:48:17.018Z,-4.69
2018-03-02T17:50:45.423Z,-4.68
2018-03-02T17:53:14.584Z,-4.70
2018-03-02T17:55:43.014Z,-4.67
2018-03-02T17:58:11.402Z,-4.76
2018-03-02T18:00:39.767Z,-4.79
2018-03-02T18:03:08.922Z,-4.87
2018-03-02T18:05:37.357Z,-4.89
2018-03-02T18:08:05.777Z,-4.95
2018-03-02T18:10:34.149Z,-4.98
2018-03-02T18:13:03.315Z,-5.04
2018-03-02T18:15:31.681Z,-5.03
2018-03-02T18:18:00.825Z,-5.06
2018-03-02T18:20:29.248Z,-5.09
2018-03-02T18:22:57.622Z,-5.14
2018-03-02T18:25:26.792Z,-5.15
2018-03-02T18:27:55.189Z,-5.17
2018-03-02T18:30:23.554Z,-5.25
2018-03-02T18:32:51.969Z,-5.23
2018-03-02T18:35:20.390Z,-5.24
2018-03-02T18:37:48.804Z,-5.25
2018-03-02T18:40:17.182Z,-5.32
2018-03-02T18:42:45.556Z,-5.34
2018-03-02T18:45:13.955Z,-5.39
2018-03-02T18:47:42.441Z,-5.40
2018-03-02T18:50:11.597Z,-5.44
2018-03-02T18:52:39.973Z,-5.48
2018-03-02T18:55:09.138Z,-5.51
2018-03-02T18:57:37.501Z,-5.56
2018-03-02T19:00:05.878Z,-5.50
2018-03-02T19:02:34.270Z,-5.42
2018-03-02T19:05:02.632Z,-5.53
2018-03-02T19:07:31.006Z,-5.57
2018-03-02T19:10:00.182Z,-5.62
2018-03-02T19:12:28.613Z,-5.67
2018-03-02T19:14:56.981Z,-5.70
2018-03-02T19:17:25.367Z,-5.71
2018-03-02T19:19:53.807Z,-5.79
2018-03-02T19:22:22.963Z,-5.81
2018-03-02T19:24:51.372Z,-5.84
2018-03-02T19:27:19.880Z,-5.84
2018-03-02T19:29:49.093Z,-5.87
2018-03-02T19:32:17.593Z,-5.96
2018-03-02T19:34:46.108Z,-5.99
2018-03-02T19:37:15.352Z,-5.95
2018-03-02T19:39:43.804Z,-5.98
2018-03-02T19:42:13.111Z,-6.03
2018-03-02T19:44:41.635Z,-6.07
2018-03-02T19:47:10.128Z,-6.06
2018-03-02T19:49:38.614Z,-6.06
2018-03-02T19:52:07.096Z,-6.07
2018-03-02T19:54:35.601Z,-6.12
2018-03-02T19:57:04.828Z,-6.13
2018-03-02T19:59:33.323Z,-6.21
2018-03-02T20:02:01.774Z,-6.17
2018-03-02T20:04:31.002Z,-6.20
2018-03-02T20:06:59.570Z,-6.28
2018-03-02T20:09:27.970Z,-6.32
2018-03-02T20:11:56.400Z,-6.32
2018-03-02T20:14:25.605Z,-6.39
2018-03-02T20:16:54.801Z,-6.44
2018-03-02T20:19:24.120Z,-6.46
2018-03-02T20:21:52.530Z,-6.44
2018-03-02T20:24:20.921Z,-6.53
2018-03-02T20:26:49.327Z,-6.52
2018-03-02T20:29:17.917Z,-6.52
2018-03-02T20:31:46.294Z,-6.57
2018-03-02T20:34:14.682Z,-6.60
2018-03-02T20:36:43.848Z,-6.61
2018-03-02T20:39:12.253Z,-6.60
2018-03-02T20:41:41.414Z,-6.62
2018-03-02T20:44:09.814Z,-6.72
2018-03-02T20:46:38.219Z,-6.69
2018-03-02T20:49:07.358Z,-6.71
2018-03-02T20:51:35.842Z,-6.75
2018-03-02T20:54:04.212Z,-6.78
2018-03-02T20:56:32.592Z,-6.80
2018-03-02T20:59:00.981Z,-6.88
2018-03-02T21:01:29.371Z,-6.92
2018-03-02T21:03:57.763Z,-6.90
2018-03-02T21:06:26.140Z,-6.91
2018-03-02T21:08:55.450Z,-6.97
2018-03-02T21:11:23.872Z,-7.00
2018-03-02T21:13:52.276Z,-7.03
2018-03-02T21:16:20.707Z,-7.03
2018-03-02T21:18:49.236Z,-7.10
2018-03-02T21:21:17.626Z,-7.09
2018-03-02T21:23:46.258Z,-7.09
2018-03-02T21:26:14.652Z,-7.17
2018-03-02T21:28:43.040Z,-7.20
2018-03-02T21:31:11.444Z,-7.20
2018-03-02T21:33:39.826Z,-7.23
2018-03-02T21:36:08.224Z,-7.29
2018-03-02T21:38:36.625Z,-7.25
2018-03-02T21:41:05.767Z,-7.33
2018-03-02T21:43:34.154Z,-7.35
2018-03-02T21:46:02.526Z,-7.37
2018-03-02T21:48:30.931Z,-7.37
2018-03-02T21:50:59.343Z,-7.44
2018-03-02T21:53:27.895Z,-7.34
2018-03-02T21:55:59.095Z,-7.40
2018-03-02T21:58:28.289Z,-7.41
2018-03-02T22:00:56.717Z,-7.40
2018-03-02T22:03:25.089Z,-7.48
2018-03-02T22:05:54.294Z,-7.47
2018-03-02T22:08:22.687Z,-7.48
2018-03-02T22:13:48.690Z,-7.45
2018-03-02T22:16:17.097Z,-7.55
2018-03-02T22:18:45.463Z,-7.62
2018-03-02T22:21:13.871Z,-7.60
2018-03-02T22:23:43.008Z,-7.64
2018-03-02T22:26:11.422Z,-7.65
2018-03-02T22:28:39.784Z,-7.69
2018-03-02T22:31:08.178Z,-7.67
2018-03-02T22:33:36.577Z,-7.70
2018-03-02T22:36:05.752Z,-7.74
2018-03-02T22:38:34.133Z,-7.73
2018-03-02T22:41:02.546Z,-7.79
2018-03-02T22:43:31.716Z,-7.76
2018-03-02T22:46:00.088Z,-7.78
2018-03-02T22:48:28.460Z,-7.80
2018-03-02T22:50:56.868Z,-7.84
2018-03-02T22:53:25.251Z,-7.86
2018-03-02T22:55:53.616Z,-7.89
2018-03-02T22:58:22.784Z,-7.90
2018-03-02T23:00:51.182Z,-7.89
2018-03-02T23:03:19.570Z,-7.92
2018-03-02T23:05:48.749Z,-7.94
2018-03-02T23:08:17.115Z,-7.95
2018-03-02T23:10:45.532Z,-7.98
2018-03-02T23:13:14.675Z,-7.98
2018-03-02T23:15:43.036Z,-8.06
2018-03-02T23:18:11.460Z,-8.09
2018-03-02T23:20:39.843Z,-8.09
2018-03-02T23:23:08.286Z,-8.12
2018-03-02T23:25:36.670Z,-8.11
2018-03-02T23:28:05.078Z,-8.16
2018-03-02T23:30:33.441Z,-8.21
2018-03-02T23:33:01.821Z,-8.21
2018-03-02T23:35:30.248Z,-8.23
2018-03-02T23:37:58.637Z,-8.22
2018-03-02T23:40:27.046Z,-8.22
2018-03-02T23:42:55.436Z,-8.27
2018-03-02T23:45:23.809Z,-8.27
2018-03-02T23:47:52.235Z,-8.31
2018-03-02T23:50:20.638Z,-8.34
2018-03-02T23:52:49.066Z,-8.36
2018-03-02T23:55:17.429Z,-8.40
2018-03-02T23:57:45.837Z,-8.44
